Terminal Aerodrome Forecast
Issued by NWS

Home | Current Version | Previous Version | Text Only | Print | Product List | Glossary On
Versions: 1 2 3 4 5 6 7 8 9 10 11 12 13 14 15 16 17 18 19 20 21 22 23 24 25 26 27
000
FTUS45 KGJT 191734
TAFDRO
TAF
KDRO 191734Z 1918/2018 VRB03KT P6SM FEW110
     FM192000 29009G16KT P6SM SCT100
     FM200200 33006KT P6SM FEW120
     FM201000 VRB03KT P6SM FEW120=

USA.gov is the U.S. government's official web portal to all federal, state and local government web resources and services.